Time;durP1;ratioP1;P1;durP2;ratioP2;P2;SDS_P1;SDS_P2;PMS_P1;PMS_P2;Temp;Humidity;BMP_temperature;BMP_pressure;BME280_temperature;BME280_humidity;BME280_pressure;Samples;Min_cycle;Max_cycle;Signal;HPM_P1;HPM_P2
2020/01/29 00:01:09;;;;;;;5.4;1.5;;;;;;;;;;;;;
2020/01/29 00:03:34;;;;;;;4.8;1.9;;;;;;;;;;;;;
2020/01/29 00:05:59;;;;;;;5.8;2;;;;;;;;;;;;;
2020/01/29 00:08:24;;;;;;;3.8;1.6;;;;;;;;;;;;;
2020/01/29 00:10:49;;;;;;;8.1;2.2;;;;;;;;;;;;;
2020/01/29 00:13:14;;;;;;;5.7;1.9;;;;;;;;;;;;;
2020/01/29 00:15:45;;;;;;;5.9;1.7;;;;;;;;;;;;;
2020/01/29 00:21:12;;;;;;;5.5;1.3;;;;;;;;;;;;;
2020/01/29 00:23:07;;;;;;;7.1;2.5;;;;;;;;;;;;;
2020/01/29 00:25:26;;;;;;;7.6;3;;;;;;;;;;;;;
2020/01/29 00:27:51;;;;;;;5.6;2.2;;;;;;;;;;;;;
2020/01/29 00:30:16;;;;;;;8.4;3.9;;;;;;;;;;;;;
2020/01/29 00:32:41;;;;;;;5.9;2.6;;;;;;;;;;;;;
2020/01/29 00:35:06;;;;;;;6.4;2.6;;;;;;;;;;;;;
2020/01/29 00:37:31;;;;;;;5.7;2.3;;;;;;;;;;;;;
2020/01/29 00:39:56;;;;;;;6.5;2.5;;;;;;;;;;;;;
2020/01/29 00:42:21;;;;;;;4.8;1.6;;;;;;;;;;;;;
2020/01/29 00:44:46;;;;;;;6.4;1.9;;;;;;;;;;;;;
2020/01/29 00:47:12;;;;;;;4.7;2;;;;;;;;;;;;;
2020/01/29 00:49:37;;;;;;;5.1;1.9;;;;;;;;;;;;;
2020/01/29 00:52:04;;;;;;;5.5;1.8;;;;;;;;;;;;;
2020/01/29 00:54:29;;;;;;;5.1;2.1;;;;;;;;;;;;;
2020/01/29 00:56:54;;;;;;;4.8;2;;;;;;;;;;;;;
2020/01/29 00:59:20;;;;;;;4;1.8;;;;;;;;;;;;;
2020/01/29 01:01:49;;;;;;;5.5;2;;;;;;;;;;;;;
2020/01/29 01:04:10;;;;;;;5.7;2;;;;;;;;;;;;;
2020/01/29 01:06:35;;;;;;;6;1.9;;;;;;;;;;;;;
2020/01/29 01:09:00;;;;;;;4.8;1.9;;;;;;;;;;;;;
2020/01/29 01:11:30;;;;;;;5.9;2.8;;;;;;;;;;;;;
2020/01/29 01:13:56;;;;;;;5.9;2;;;;;;;;;;;;;
2020/01/29 01:18:46;;;;;;;4.7;1.9;;;;;;;;;;;;;
2020/01/29 01:21:10;;;;;;;3.1;1.8;;;;;;;;;;;;;
2020/01/29 01:23:35;;;;;;;3.3;1.8;;;;;;;;;;;;;
2020/01/29 01:26:01;;;;;;;3.1;1.7;;;;;;;;;;;;;
2020/01/29 01:28:29;;;;;;;3.4;1.6;;;;;;;;;;;;;
2020/01/29 01:30:51;;;;;;;3.5;1.4;;;;;;;;;;;;;
2020/01/29 01:33:16;;;;;;;2.9;1.5;;;;;;;;;;;;;
2020/01/29 01:35:44;;;;;;;2.3;1.2;;;;;;;;;;;;;
2020/01/29 01:38:10;;;;;;;3.2;1.5;;;;;;;;;;;;;
2020/01/29 01:40:35;;;;;;;3.5;1.5;;;;;;;;;;;;;
2020/01/29 01:43:00;;;;;;;3.2;1.1;;;;;;;;;;;;;
2020/01/29 01:45:32;;;;;;;2.5;1;;;;;;;;;;;;;
2020/01/29 01:47:57;;;;;;;2.4;1.3;;;;;;;;;;;;;
2020/01/29 01:50:22;;;;;;;2.3;1;;;;;;;;;;;;;
2020/01/29 01:52:47;;;;;;;1.9;0.8;;;;;;;;;;;;;
2020/01/29 01:55:12;;;;;;;1.5;0.9;;;;;;;;;;;;;
2020/01/29 01:57:38;;;;;;;1.5;0.8;;;;;;;;;;;;;
2020/01/29 02:00:03;;;;;;;1.7;0.9;;;;;;;;;;;;;
2020/01/29 02:02:28;;;;;;;1.5;0.8;;;;;;;;;;;;;
2020/01/29 02:04:53;;;;;;;1.5;0.8;;;;;;;;;;;;;
2020/01/29 02:07:18;;;;;;;1.1;0.8;;;;;;;;;;;;;
2020/01/29 02:09:43;;;;;;;0.8;0.7;;;;;;;;;;;;;
2020/01/29 02:12:08;;;;;;;1.4;0.6;;;;;;;;;;;;;
2020/01/29 02:14:33;;;;;;;1.5;0.7;;;;;;;;;;;;;
2020/01/29 02:16:58;;;;;;;1;0.6;;;;;;;;;;;;;
2020/01/29 02:19:23;;;;;;;0.5;0.5;;;;;;;;;;;;;
2020/01/29 02:21:48;;;;;;;0.8;0.6;;;;;;;;;;;;;
2020/01/29 02:24:14;;;;;;;0.6;0.5;;;;;;;;;;;;;
2020/01/29 02:27:10;;;;;;;0.7;0.6;;;;;;;;;;;;;
2020/01/29 02:29:19;;;;;;;1;0.5;;;;;;;;;;;;;
2020/01/29 02:32:12;;;;;;;0.8;0.5;;;;;;;;;;;;;
2020/01/29 02:34:06;;;;;;;0.7;0.5;;;;;;;;;;;;;
2020/01/29 02:36:39;;;;;;;0.7;0.4;;;;;;;;;;;;;
2020/01/29 02:39:13;;;;;;;0.4;0.3;;;;;;;;;;;;;
2020/01/29 02:41:48;;;;;;;1.1;0.4;;;;;;;;;;;;;
2020/01/29 02:44:14;;;;;;;0.6;0.4;;;;;;;;;;;;;
2020/01/29 02:46:49;;;;;;;0.4;0.4;;;;;;;;;;;;;
2020/01/29 02:49:23;;;;;;;0.7;0.5;;;;;;;;;;;;;
2020/01/29 02:51:49;;;;;;;0.5;0.3;;;;;;;;;;;;;
2020/01/29 02:54:24;;;;;;;0.4;0.3;;;;;;;;;;;;;
2020/01/29 02:56:59;;;;;;;0.4;0.3;;;;;;;;;;;;;
2020/01/29 02:59:34;;;;;;;0.4;0.3;;;;;;;;;;;;;
2020/01/29 03:01:59;;;;;;;0.3;0.3;;;;;;;;;;;;;
2020/01/29 03:04:24;;;;;;;0.6;0.4;;;;;;;;;;;;;
2020/01/29 03:06:49;;;;;;;0.5;0.4;;;;;;;;;;;;;
2020/01/29 03:09:15;;;;;;;0.3;0.3;;;;;;;;;;;;;
2020/01/29 03:11:40;;;;;;;1.2;0.4;;;;;;;;;;;;;
2020/01/29 03:14:10;;;;;;;0.8;0.4;;;;;;;;;;;;;
2020/01/29 03:16:42;;;;;;;0.5;0.4;;;;;;;;;;;;;
2020/01/29 03:22:46;;;;;;;1;0.4;;;;;;;;;;;;;
2020/01/29 03:23:51;;;;;;;1.4;0.3;;;;;;;;;;;;;
2020/01/29 03:26:15;;;;;;;0.8;0.4;;;;;;;;;;;;;
2020/01/29 03:28:40;;;;;;;1;0.4;;;;;;;;;;;;;
2020/01/29 03:31:11;;;;;;;0.7;0.4;;;;;;;;;;;;;
2020/01/29 03:33:36;;;;;;;1.2;0.5;;;;;;;;;;;;;
2020/01/29 03:36:03;;;;;;;1.6;0.4;;;;;;;;;;;;;
2020/01/29 03:38:28;;;;;;;1.7;0.6;;;;;;;;;;;;;
2020/01/29 03:40:53;;;;;;;0.8;0.5;;;;;;;;;;;;;
2020/01/29 03:43:18;;;;;;;1.4;0.5;;;;;;;;;;;;;
2020/01/29 03:45:46;;;;;;;1.4;0.4;;;;;;;;;;;;;
2020/01/29 03:48:11;;;;;;;1.5;0.4;;;;;;;;;;;;;
2020/01/29 03:50:36;;;;;;;0.7;0.5;;;;;;;;;;;;;
2020/01/29 03:53:01;;;;;;;1.6;0.5;;;;;;;;;;;;;
2020/01/29 03:55:34;;;;;;;1.8;0.5;;;;;;;;;;;;;
2020/01/29 03:57:59;;;;;;;1.2;0.5;;;;;;;;;;;;;
2020/01/29 04:02:35;;;;;;;1.5;0.5;;;;;;;2.88;89.41895;948.8794;;;;
2020/01/29 04:05:00;;;;;;;1.9;0.5;;;;;;;2.82;89.75586;948.9144;;;;
2020/01/29 04:07:25;;;;;;;1;0.4;;;;;;;2.87;90.75098;949.0184;;;;
2020/01/29 04:09:50;;;;;;;1.3;0.5;;;;;;;2.92;90.24219;949.0551;;;;
2020/01/29 04:12:15;;;;;;;0.9;0.4;;;;;;;2.96;89.54688;949.0609;;;;
2020/01/29 04:14:43;;;;;;;2.3;0.7;;;;;;;2.86;89.19824;949.1055;;;;
2020/01/29 04:17:24;;;;;;;0.8;0.4;;;;;;;2.97;89.26855;949.1347;;;;
2020/01/29 04:19:42;;;;;;;1.3;0.6;;;;;;;2.87;89.21387;949.2275;;;;
2020/01/29 04:22:17;;;;;;;1.6;0.6;;;;;;;3.05;88.2334;949.2978;;;;
2020/01/29 04:24:32;;;;;;;1.7;0.6;;;;;;;3.05;89.2627;949.3848;;;;
2020/01/29 04:27:08;;;;;;;1.7;0.6;;;;;;;2.83;89.74512;949.2758;;;;
2020/01/29 04:29:34;;;;;;;2.5;0.7;;;;;;;2.76;89.06445;949.3895;;;;
2020/01/29 04:32:07;;;;;;;2.4;0.6;;;;;;;2.88;89.1123;949.4866;;;;
2020/01/29 04:34:47;;;;;;;2.8;0.9;;;;;;;2.66;89.23828;949.5767;;;;
2020/01/29 04:37:13;;;;;;;2.3;0.7;;;;;;;2.85;88.33789;949.5686;;;;
2020/01/29 04:39:53;;;;;;;1.5;0.6;;;;;;;2.77;88.69531;949.6786;;;;
2020/01/29 04:42:18;;;;;;;1.7;0.7;;;;;;;2.64;88.70117;949.7676;;;;
2020/01/29 04:44:43;;;;;;;1.9;1;;;;;;;2.71;88.66895;949.8148;;;;
2020/01/29 04:47:08;;;;;;;2.1;0.8;;;;;;;2.74;88.52051;949.8466;;;;
2020/01/29 04:49:33;;;;;;;2.2;0.8;;;;;;;2.82;87.36035;949.8533;;;;
2020/01/29 04:51:58;;;;;;;2;0.7;;;;;;;2.75;88.42969;949.9745;;;;
2020/01/29 04:54:23;;;;;;;3;1;;;;;;;2.89;88.00586;950.0153;;;;
2020/01/29 04:56:48;;;;;;;2;0.7;;;;;;;2.88;87.64453;950.0176;;;;
2020/01/29 04:59:14;;;;;;;2.2;0.9;;;;;;;2.67;88.79785;949.9455;;;;
2020/01/29 05:01:56;;;;;;;1.9;0.9;;;;;;;2.78;87.98535;949.9494;;;;
2020/01/29 05:04:21;;;;;;;3.2;1;;;;;;;2.66;87.54297;949.9885;;;;
2020/01/29 05:06:46;;;;;;;2.7;0.9;;;;;;;2.76;87.83301;950.0007;;;;
2020/01/29 05:09:11;;;;;;;2.6;0.8;;;;;;;2.83;87.06836;949.9774;;;;
2020/01/29 05:11:54;;;;;;;3.6;1;;;;;;;2.75;87.80859;950.0862;;;;
2020/01/29 05:14:19;;;;;;;3.5;1.2;;;;;;;2.93;86.70605;950.1031;;;;
2020/01/29 05:16:45;;;;;;;2.5;0.8;;;;;;;2.78;86.04004;950.1597;;;;
2020/01/29 05:19:10;;;;;;;2.5;0.9;;;;;;;2.75;88.02344;950.2592;;;;
2020/01/29 05:21:35;;;;;;;3;0.9;;;;;;;2.74;87.46973;950.239;;;;
2020/01/29 05:24:00;;;;;;;3.1;1.1;;;;;;;2.7;86.4209;950.2634;;;;
2020/01/29 05:26:25;;;;;;;3.5;1.1;;;;;;;2.63;86.64551;950.3016;;;;
2020/01/29 05:28:50;;;;;;;2.8;0.9;;;;;;;;;;;;;
2020/01/29 05:31:23;;;;;;;2.2;0.9;;;;;;;;;;;;;
2020/01/29 05:33:48;;;;;;;3.9;1;;;;;;;;;;;;;
2020/01/29 05:36:13;;;;;;;2.5;1;;;;;;;;;;;;;
2020/01/29 05:38:38;;;;;;;3.8;1.4;;;;;;;;;;;;;
2020/01/29 05:41:13;;;;;;;3.1;1;;;;;;;;;;;;;
2020/01/29 05:43:38;;;;;;;3.3;0.9;;;;;;;;;;;;;
2020/01/29 05:46:11;;;;;;;2.8;1;;;;;;;;;;;;;
2020/01/29 05:48:36;;;;;;;2.3;0.8;;;;;;;;;;;;;
2020/01/29 05:51:09;;;;;;;2.6;0.8;;;;;;;;;;;;;
2020/01/29 05:53:35;;;;;;;1.9;0.8;;;;;;;;;;;;;
2020/01/29 05:56:00;;;;;;;2.9;0.9;;;;;;;;;;;;;
2020/01/29 05:58:32;;;;;;;3.8;0.9;;;;;;;;;;;;;
2020/01/29 06:00:57;;;;;;;1.8;0.8;;;;;;;;;;;;;
2020/01/29 06:03:22;;;;;;;3.9;1.1;;;;;;;;;;;;;
2020/01/29 06:05:50;;;;;;;2.9;1;;;;;;;;;;;;;
2020/01/29 06:08:15;;;;;;;2.6;0.9;;;;;;;;;;;;;
2020/01/29 06:10:40;;;;;;;2.8;0.8;;;;;;;;;;;;;
2020/01/29 06:13:07;;;;;;;3;0.9;;;;;;;;;;;;;
2020/01/29 06:15:41;;;;;;;3.3;1;;;;;;;;;;;;;
2020/01/29 06:18:06;;;;;;;2.3;0.8;;;;;;;;;;;;;
2020/01/29 06:20:36;;;;;;;2.4;1;;;;;;;;;;;;;
2020/01/29 06:23:01;;;;;;;2;0.8;;;;;;;;;;;;;
2020/01/29 06:25:36;;;;;;;2.9;0.9;;;;;;;;;;;;;
2020/01/29 06:28:01;;;;;;;2.5;1.2;;;;;;;;;;;;;
2020/01/29 06:30:37;;;;;;;2.4;0.9;;;;;;;;;;;;;
2020/01/29 06:33:02;;;;;;;2.9;0.9;;;;;;;;;;;;;
2020/01/29 06:35:27;;;;;;;2.4;0.8;;;;;;;;;;;;;
2020/01/29 06:37:52;;;;;;;3.8;1.2;;;;;;;;;;;;;
2020/01/29 06:40:17;;;;;;;3.3;1.1;;;;;;;;;;;;;
2020/01/29 06:42:42;;;;;;;3.4;1;;;;;;;;;;;;;
2020/01/29 06:45:08;;;;;;;3.8;1.2;;;;;;;;;;;;;
2020/01/29 06:47:33;;;;;;;2.5;0.9;;;;;;;;;;;;;
2020/01/29 06:49:58;;;;;;;2.3;0.9;;;;;;;;;;;;;
2020/01/29 06:52:23;;;;;;;3.9;1.2;;;;;;;;;;;;;
2020/01/29 06:54:48;;;;;;;3.8;1.3;;;;;;;;;;;;;
2020/01/29 06:57:13;;;;;;;3.3;1.2;;;;;;;;;;;;;
2020/01/29 06:59:39;;;;;;;2.9;1.2;;;;;;;;;;;;;
2020/01/29 07:02:04;;;;;;;3.3;1.3;;;;;;;;;;;;;
2020/01/29 07:04:29;;;;;;;4.6;1.4;;;;;;;;;;;;;
2020/01/29 07:06:54;;;;;;;3.3;1.3;;;;;;;;;;;;;
2020/01/29 07:09:19;;;;;;;3.9;1.3;;;;;;;;;;;;;
2020/01/29 07:11:44;;;;;;;5;1.4;;;;;;;;;;;;;
2020/01/29 07:14:09;;;;;;;5;1.6;;;;;;;;;;;;;
2020/01/29 07:19:05;;;;;;;6.2;1.6;;;;;;;;;;;;;
2020/01/29 07:21:24;;;;;;;4.9;1.7;;;;;;;;;;;;;
2020/01/29 07:23:49;;;;;;;4.6;1.4;;;;;;;;;;;;;
2020/01/29 07:26:14;;;;;;;5.4;1.4;;;;;;;;;;;;;
2020/01/29 07:28:39;;;;;;;7.9;2;;;;;;;;;;;;;
2020/01/29 07:31:05;;;;;;;4.5;2;;;;;;;;;;;;;
2020/01/29 07:33:30;;;;;;;7.3;2.5;;;;;;;;;;;;;
2020/01/29 07:35:55;;;;;;;7.7;2.6;;;;;;;;;;;;;
2020/01/29 07:38:20;;;;;;;4.5;1.8;;;;;;;;;;;;;
2020/01/29 07:40:45;;;;;;;7.2;4;;;;;;;;;;;;;
2020/01/29 07:43:10;;;;;;;7.4;3.7;;;;;;;;;;;;;
2020/01/29 07:45:35;;;;;;;6.5;2.6;;;;;;;;;;;;;
2020/01/29 07:48:00;;;;;;;6.9;4.2;;;;;;;;;;;;;
2020/01/29 07:50:25;;;;;;;10;4.2;;;;;;;;;;;;;
2020/01/29 07:52:51;;;;;;;6.4;2.1;;;;;;;;;;;;;
2020/01/29 07:55:16;;;;;;;9;3.1;;;;;;;;;;;;;
2020/01/29 07:57:41;;;;;;;8.6;4.7;;;;;;;;;;;;;
2020/01/29 08:00:06;;;;;;;9;3.7;;;;;;;;;;;;;
2020/01/29 08:02:31;;;;;;;7.7;3.6;;;;;;;;;;;;;
2020/01/29 08:04:56;;;;;;;7.4;2.5;;;;;;;;;;;;;
2020/01/29 08:07:21;;;;;;;9.3;2.9;;;;;;;;;;;;;
2020/01/29 08:09:46;;;;;;;8.6;2.7;;;;;;;;;;;;;
2020/01/29 08:12:11;;;;;;;7;2.1;;;;;;;;;;;;;
2020/01/29 08:14:36;;;;;;;5.6;1.9;;;;;;;;;;;;;
2020/01/29 08:17:01;;;;;;;7;1.9;;;;;;;;;;;;;
2020/01/29 08:19:26;;;;;;;5.2;1.9;;;;;;;;;;;;;
2020/01/29 08:21:51;;;;;;;6.2;1.8;;;;;;;;;;;;;
2020/01/29 08:24:16;;;;;;;5.6;1.6;;;;;;;;;;;;;
2020/01/29 08:26:42;;;;;;;7;1.6;;;;;;;;;;;;;
2020/01/29 08:29:07;;;;;;;6.3;2;;;;;;;;;;;;;
2020/01/29 08:31:32;;;;;;;6.9;1.8;;;;;;;;;;;;;
2020/01/29 08:33:57;;;;;;;7.4;2.2;;;;;;;;;;;;;
2020/01/29 08:36:22;;;;;;;7.4;2.2;;;;;;;;;;;;;
2020/01/29 08:38:47;;;;;;;4.9;1.7;;;;;;;;;;;;;
2020/01/29 08:41:12;;;;;;;6.2;1.9;;;;;;;;;;;;;
2020/01/29 08:43:37;;;;;;;6.3;1.9;;;;;;;;;;;;;
2020/01/29 08:46:02;;;;;;;6.9;1.8;;;;;;;;;;;;;
2020/01/29 08:48:27;;;;;;;6.9;1.8;;;;;;;;;;;;;
2020/01/29 08:50:52;;;;;;;7.2;1.9;;;;;;;;;;;;;
2020/01/29 08:53:17;;;;;;;4.5;1.5;;;;;;;;;;;;;
2020/01/29 08:55:43;;;;;;;6.5;1.8;;;;;;;;;;;;;
2020/01/29 08:58:08;;;;;;;6.5;1.7;;;;;;;;;;;;;
2020/01/29 09:00:35;;;;;;;5.6;1.7;;;;;;;;;;;;;
2020/01/29 09:03:04;;;;;;;5.9;1.8;;;;;;;;;;;;;
2020/01/29 09:05:23;;;;;;;6;1.9;;;;;;;;;;;;;
2020/01/29 09:07:48;;;;;;;4.4;1.4;;;;;;;;;;;;;
2020/01/29 09:10:13;;;;;;;7;1.7;;;;;;;;;;;;;
2020/01/29 09:12:38;;;;;;;4.3;1.7;;;;;;;;;;;;;
2020/01/29 09:15:03;;;;;;;5.7;1.8;;;;;;;;;;;;;
2020/01/29 09:17:28;;;;;;;7.5;1.9;;;;;;;;;;;;;
2020/01/29 09:19:53;;;;;;;6.1;1.9;;;;;;;;;;;;;
2020/01/29 09:22:18;;;;;;;5.4;1.8;;;;;;;;;;;;;
2020/01/29 09:24:43;;;;;;;5.5;1.7;;;;;;;;;;;;;
2020/01/29 09:27:08;;;;;;;5.3;1.5;;;;;;;;;;;;;
2020/01/29 09:29:34;;;;;;;4.8;1.7;;;;;;;;;;;;;
2020/01/29 09:31:59;;;;;;;6;1.6;;;;;;;;;;;;;
2020/01/29 09:34:24;;;;;;;4.3;1.6;;;;;;;;;;;;;
2020/01/29 09:36:49;;;;;;;5.8;1.7;;;;;;;;;;;;;
2020/01/29 09:39:14;;;;;;;5.8;1.6;;;;;;;;;;;;;
2020/01/29 09:41:39;;;;;;;5.3;1.9;;;;;;;;;;;;;
2020/01/29 09:44:04;;;;;;;3.7;1.5;;;;;;;;;;;;;
2020/01/29 09:46:29;;;;;;;4.8;1.7;;;;;;;;;;;;;
2020/01/29 09:48:54;;;;;;;6.7;1.7;;;;;;;;;;;;;
2020/01/29 09:51:19;;;;;;;5.9;1.7;;;;;;;;;;;;;
2020/01/29 09:53:44;;;;;;;5.6;1.8;;;;;;;;;;;;;
2020/01/29 09:56:10;;;;;;;7.1;1.8;;;;;;;;;;;;;
2020/01/29 09:58:35;;;;;;;6.4;1.7;;;;;;;;;;;;;
2020/01/29 10:01:00;;;;;;;4.7;1.7;;;;;;;;;;;;;
2020/01/29 10:03:25;;;;;;;5.8;1.8;;;;;;;;;;;;;
2020/01/29 10:05:50;;;;;;;6.1;1.6;;;;;;;;;;;;;
2020/01/29 10:08:15;;;;;;;5.4;1.7;;;;;;;;;;;;;
2020/01/29 10:10:40;;;;;;;5.1;1.9;;;;;;;;;;;;;
2020/01/29 10:13:05;;;;;;;9;2.2;;;;;;;;;;;;;
2020/01/29 10:15:30;;;;;;;5;1.9;;;;;;;;;;;;;
2020/01/29 10:17:55;;;;;;;5.7;1.9;;;;;;;;;;;;;
2020/01/29 10:20:20;;;;;;;7.3;2.1;;;;;;;;;;;;;
2020/01/29 10:22:45;;;;;;;5.6;1.7;;;;;;;;;;;;;
2020/01/29 10:25:11;;;;;;;5.7;1.8;;;;;;;;;;;;;
2020/01/29 10:27:36;;;;;;;7.6;1.9;;;;;;;;;;;;;
2020/01/29 10:30:01;;;;;;;6.4;1.9;;;;;;;;;;;;;
2020/01/29 10:32:26;;;;;;;7.5;2.1;;;;;;;;;;;;;
2020/01/29 10:34:51;;;;;;;5.7;1.7;;;;;;;;;;;;;
2020/01/29 10:37:16;;;;;;;7.6;1.8;;;;;;;;;;;;;
2020/01/29 10:39:41;;;;;;;5.4;2;;;;;;;;;;;;;
2020/01/29 10:42:06;;;;;;;8.4;2.1;;;;;;;;;;;;;
2020/01/29 10:44:31;;;;;;;9.5;2;;;;;;;;;;;;;
2020/01/29 10:46:57;;;;;;;8.2;1.9;;;;;;;;;;;;;
2020/01/29 10:49:22;;;;;;;6.7;1.8;;;;;;;;;;;;;
2020/01/29 10:51:47;;;;;;;8.8;2.1;;;;;;;;;;;;;
2020/01/29 10:56:37;;;;;;;8.2;2;;;;;;;;;;;;;
2020/01/29 10:59:02;;;;;;;7.1;2;;;;;;;;;;;;;
2020/01/29 11:01:27;;;;;;;5;1.7;;;;;;;;;;;;;
2020/01/29 11:03:52;;;;;;;6.7;1.9;;;;;;;;;;;;;
2020/01/29 11:06:18;;;;;;;8.5;2.6;;;;;;;;;;;;;
2020/01/29 11:08:43;;;;;;;7.8;2.3;;;;;;;;;;;;;
2020/01/29 11:13:52;;;;;;;7.9;1.9;;;;;;;;;;;;;
2020/01/29 11:16:04;;;;;;;8.6;2;;;;;;;;;;;;;
2020/01/29 11:18:23;;;;;;;7;2;;;;;;;;;;;;;
2020/01/29 11:20:48;;;;;;;7.6;2;;;;;;;;;;;;;
2020/01/29 11:23:13;;;;;;;7.4;2;;;;;;;;;;;;;
2020/01/29 11:25:38;;;;;;;7.5;2.1;;;;;;;;;;;;;
2020/01/29 11:28:03;;;;;;;6.7;2.2;;;;;;;;;;;;;
2020/01/29 11:30:29;;;;;;;7.4;2.3;;;;;;;;;;;;;
2020/01/29 11:32:54;;;;;;;7.5;2;;;;;;;;;;;;;
2020/01/29 11:35:19;;;;;;;8;2.2;;;;;;;;;;;;;
2020/01/29 11:37:44;;;;;;;6.6;2;;;;;;;;;;;;;
2020/01/29 11:40:09;;;;;;;7.6;2.2;;;;;;;;;;;;;
2020/01/29 11:42:34;;;;;;;6.8;2.2;;;;;;;;;;;;;
2020/01/29 11:44:59;;;;;;;6.9;2;;;;;;;;;;;;;
2020/01/29 11:47:24;;;;;;;7.4;2;;;;;;;;;;;;;
2020/01/29 11:49:49;;;;;;;7.2;2.3;;;;;;;;;;;;;
2020/01/29 11:52:14;;;;;;;6.8;2.4;;;;;;;;;;;;;
2020/01/29 11:54:39;;;;;;;8.5;2.5;;;;;;;;;;;;;
2020/01/29 11:57:04;;;;;;;6.6;1.9;;;;;;;;;;;;;
2020/01/29 11:59:30;;;;;;;4.6;1.7;;;;;;;;;;;;;
2020/01/29 12:01:55;;;;;;;8.5;2;;;;;;;;;;;;;
2020/01/29 12:04:20;;;;;;;7.2;2.2;;;;;;;;;;;;;
2020/01/29 12:06:45;;;;;;;8.5;2.1;;;;;;;;;;;;;
2020/01/29 12:09:10;;;;;;;8.5;1.7;;;;;;;;;;;;;
2020/01/29 12:11:35;;;;;;;7.3;1.7;;;;;;;;;;;;;
2020/01/29 12:14:00;;;;;;;7.2;2.1;;;;;;;;;;;;;
2020/01/29 12:16:25;;;;;;;6.8;1.9;;;;;;;;;;;;;
2020/01/29 12:18:51;;;;;;;7.5;2.4;;;;;;;;;;;;;
2020/01/29 12:21:16;;;;;;;7.8;3.1;;;;;;;;;;;;;
2020/01/29 12:23:41;;;;;;;6.3;2.1;;;;;;;;;;;;;
2020/01/29 12:26:06;;;;;;;7;1.7;;;;;;;;;;;;;
2020/01/29 12:28:31;;;;;;;8.8;1.8;;;;;;;;;;;;;
2020/01/29 12:30:56;;;;;;;8.6;2.1;;;;;;;;;;;;;
2020/01/29 12:33:21;;;;;;;6.8;2.1;;;;;;;;;;;;;
2020/01/29 12:35:47;;;;;;;5.3;1.8;;;;;;;;;;;;;
2020/01/29 12:38:12;;;;;;;5.3;1.7;;;;;;;;;;;;;
2020/01/29 12:40:37;;;;;;;7.8;1.8;;;;;;;;;;;;;
2020/01/29 12:43:02;;;;;;;7.6;2.4;;;;;;;;;;;;;
2020/01/29 12:45:27;;;;;;;7.6;2.4;;;;;;;;;;;;;
2020/01/29 12:47:52;;;;;;;6.9;1.9;;;;;;;;;;;;;
2020/01/29 12:50:17;;;;;;;7.8;2.2;;;;;;;;;;;;;
2020/01/29 12:52:42;;;;;;;6.5;1.9;;;;;;;;;;;;;
2020/01/29 12:55:07;;;;;;;8.3;1.9;;;;;;;;;;;;;
2020/01/29 12:57:32;;;;;;;6.4;1.9;;;;;;;;;;;;;
2020/01/29 12:59:57;;;;;;;7.3;2;;;;;;;;;;;;;
2020/01/29 13:02:23;;;;;;;5.7;1.7;;;;;;;;;;;;;
2020/01/29 13:04:48;;;;;;;5.3;1.7;;;;;;;;;;;;;
2020/01/29 13:07:13;;;;;;;7.9;2.1;;;;;;;;;;;;;
2020/01/29 13:09:38;;;;;;;7;2;;;;;;;;;;;;;
2020/01/29 13:12:03;;;;;;;7.7;1.9;;;;;;;;;;;;;
2020/01/29 13:14:28;;;;;;;6;1.8;;;;;;;;;;;;;
2020/01/29 13:16:53;;;;;;;6;2;;;;;;;;;;;;;
2020/01/29 13:19:18;;;;;;;5.6;2;;;;;;;;;;;;;
2020/01/29 13:21:45;;;;;;;6.5;1.8;;;;;;;;;;;;;
2020/01/29 13:24:18;;;;;;;5.7;2.1;;;;;;;;;;;;;
2020/01/29 13:26:37;;;;;;;4.9;1.6;;;;;;;;;;;;;
2020/01/29 13:28:59;;;;;;;6.6;2.1;;;;;;;;;;;;;
2020/01/29 13:31:24;;;;;;;6.8;2;;;;;;;;;;;;;
2020/01/29 13:33:49;;;;;;;6.8;1.7;;;;;;;;;;;;;
2020/01/29 13:36:14;;;;;;;7.2;2;;;;;;;;;;;;;
2020/01/29 13:38:39;;;;;;;5.1;1.8;;;;;;;;;;;;;
2020/01/29 13:41:04;;;;;;;5.5;1.5;;;;;;;;;;;;;
2020/01/29 13:43:29;;;;;;;5.8;1.7;;;;;;;;;;;;;
2020/01/29 13:45:55;;;;;;;7.2;2.1;;;;;;;;;;;;;
2020/01/29 13:48:20;;;;;;;5.7;1.9;;;;;;;;;;;;;
2020/01/29 13:50:45;;;;;;;7.7;1.9;;;;;;;;;;;;;
2020/01/29 13:53:10;;;;;;;6.5;1.9;;;;;;;;;;;;;
2020/01/29 13:55:35;;;;;;;7.1;2.1;;;;;;;;;;;;;
2020/01/29 13:58:00;;;;;;;6.2;2.1;;;;;;;;;;;;;
2020/01/29 14:00:25;;;;;;;6.6;1.7;;;;;;;;;;;;;
2020/01/29 14:02:51;;;;;;;6;1.9;;;;;;;;;;;;;
2020/01/29 14:05:16;;;;;;;7;2;;;;;;;;;;;;;
2020/01/29 14:07:41;;;;;;;7.6;2.1;;;;;;;;;;;;;
2020/01/29 14:10:06;;;;;;;6;2;;;;;;;;;;;;;
2020/01/29 14:12:31;;;;;;;6.6;2.1;;;;;;;;;;;;;
2020/01/29 14:14:56;;;;;;;5.5;1.8;;;;;;;;;;;;;
2020/01/29 14:17:21;;;;;;;7.7;2.1;;;;;;;;;;;;;
2020/01/29 14:19:46;;;;;;;6.5;2.1;;;;;;;;;;;;;
2020/01/29 14:22:11;;;;;;;5.3;2;;;;;;;;;;;;;
2020/01/29 14:24:36;;;;;;;6.6;1.7;;;;;;;;;;;;;
2020/01/29 14:27:01;;;;;;;7.2;2.2;;;;;;;;;;;;;
2020/01/29 14:29:26;;;;;;;7.5;2;;;;;;;;;;;;;
2020/01/29 14:31:51;;;;;;;7.2;2.2;;;;;;;;;;;;;
2020/01/29 14:34:17;;;;;;;6.5;2.1;;;;;;;;;;;;;
2020/01/29 14:36:42;;;;;;;5.9;2;;;;;;;;;;;;;
2020/01/29 14:39:07;;;;;;;4.6;1.8;;;;;;;;;;;;;
2020/01/29 14:41:32;;;;;;;5.7;1.9;;;;;;;;;;;;;
2020/01/29 14:43:57;;;;;;;7;2.1;;;;;;;;;;;;;
2020/01/29 14:46:22;;;;;;;7;2.1;;;;;;;;;;;;;
2020/01/29 14:48:47;;;;;;;8.3;2;;;;;;;;;;;;;
2020/01/29 14:51:13;;;;;;;6.1;2.1;;;;;;;;;;;;;
2020/01/29 14:53:38;;;;;;;5.4;2.1;;;;;;;;;;;;;
2020/01/29 14:56:03;;;;;;;6.5;2.3;;;;;;;;;;;;;
2020/01/29 14:58:28;;;;;;;6.5;2.3;;;;;;;;;;;;;
2020/01/29 15:00:53;;;;;;;6.3;2.1;;;;;;;;;;;;;
2020/01/29 15:03:19;;;;;;;6.2;2.3;;;;;;;;;;;;;
2020/01/29 15:05:44;;;;;;;8.7;2.5;;;;;;;;;;;;;
2020/01/29 15:08:09;;;;;;;7.7;2.6;;;;;;;;;;;;;
2020/01/29 15:10:34;;;;;;;6.7;2.3;;;;;;;;;;;;;
2020/01/29 15:12:59;;;;;;;6.8;2.5;;;;;;;;;;;;;
2020/01/29 15:15:24;;;;;;;7.7;2.6;;;;;;;;;;;;;
2020/01/29 15:17:49;;;;;;;7.3;2.4;;;;;;;;;;;;;
2020/01/29 15:20:14;;;;;;;7.7;2.3;;;;;;;;;;;;;
2020/01/29 15:22:39;;;;;;;6.6;2.4;;;;;;;;;;;;;
2020/01/29 15:25:05;;;;;;;6.3;2.4;;;;;;;;;;;;;
2020/01/29 15:27:30;;;;;;;6.4;2.5;;;;;;;;;;;;;
2020/01/29 15:29:55;;;;;;;7.1;2.3;;;;;;;;;;;;;
2020/01/29 15:32:20;;;;;;;6.7;2.3;;;;;;;;;;;;;
2020/01/29 15:34:45;;;;;;;5.9;2;;;;;;;;;;;;;
2020/01/29 15:37:10;;;;;;;6.7;3.5;;;;;;;;;;;;;
2020/01/29 15:39:35;;;;;;;7.9;4.4;;;;;;;;;;;;;
2020/01/29 15:42:01;;;;;;;8.8;2.9;;;;;;;;;;;;;
2020/01/29 15:44:26;;;;;;;6.6;2.4;;;;;;;;;;;;;
2020/01/29 15:46:51;;;;;;;7.3;2.4;;;;;;;;;;;;;
2020/01/29 15:49:16;;;;;;;8.1;2.9;;;;;;;;;;;;;
2020/01/29 15:51:41;;;;;;;6.8;2.5;;;;;;;;;;;;;
2020/01/29 15:54:06;;;;;;;8.4;3;;;;;;;;;;;;;
2020/01/29 15:56:31;;;;;;;6.9;2.7;;;;;;;;;;;;;
2020/01/29 15:58:56;;;;;;;8.8;3.1;;;;;;;;;;;;;
2020/01/29 16:01:21;;;;;;;10;3.1;;;;;;;;;;;;;
2020/01/29 16:03:46;;;;;;;8;3.1;;;;;;;;;;;;;
2020/01/29 16:06:12;;;;;;;9.7;3.1;;;;;;;;;;;;;
2020/01/29 16:08:37;;;;;;;9;3;;;;;;;;;;;;;
2020/01/29 16:11:02;;;;;;;8.8;3.5;;;;;;;;;;;;;
2020/01/29 16:13:27;;;;;;;9.4;3.3;;;;;;;;;;;;;
2020/01/29 16:15:52;;;;;;;7.6;3.2;;;;;;;;;;;;;
2020/01/29 16:18:17;;;;;;;8.8;2.8;;;;;;;;;;;;;
2020/01/29 16:20:42;;;;;;;8;2.8;;;;;;;;;;;;;
2020/01/29 16:23:07;;;;;;;9.4;3;;;;;;;;;;;;;
2020/01/29 16:25:32;;;;;;;9.9;3.5;;;;;;;;;;;;;
2020/01/29 16:28:18;;;;;;;7.5;2.8;;;;;;;;;;;;;
2020/01/29 16:33:13;;;;;;;5.8;1.8;;;;;;;;;;;;;
2020/01/29 16:35:25;;;;;;;7.2;2.4;;;;;;;;;;;;;
2020/01/29 16:40:21;;;;;;;4.9;2.1;;;;;;;;;;;;;
2020/01/29 16:42:34;;;;;;;12.6;5.2;;;;;;;;;;;;;
2020/01/29 16:49:47;;;;;;;4.3;1.5;;;;;;;;;;;;;
2020/01/29 16:52:08;;;;;;;4.3;1.6;;;;;;;;;;;;;
2020/01/29 16:54:36;;;;;;;4.5;1.6;;;;;;;;;;;;;
2020/01/29 16:57:01;;;;;;;4;1.7;;;;;;;;;;;;;
2020/01/29 16:59:26;;;;;;;5;1.9;;;;;;;;;;;;;
2020/01/29 17:01:51;;;;;;;5.6;1.8;;;;;;;;;;;;;
2020/01/29 17:04:16;;;;;;;5.1;1.5;;;;;;;;;;;;;
2020/01/29 17:06:41;;;;;;;4.3;1.7;;;;;;;;;;;;;
2020/01/29 17:09:07;;;;;;;7.3;2.1;;;;;;;;;;;;;
2020/01/29 17:11:31;;;;;;;4.2;1.6;;;;;;;;;;;;;
2020/01/29 17:13:57;;;;;;;4.8;1.6;;;;;;;;;;;;;
2020/01/29 17:16:22;;;;;;;6.1;1.8;;;;;;;;;;;;;
2020/01/29 17:18:47;;;;;;;4.6;2.1;;;;;;;;;;;;;
2020/01/29 17:21:12;;;;;;;4.2;2;;;;;;;;;;;;;
2020/01/29 17:23:37;;;;;;;4.7;2.2;;;;;;;;;;;;;
2020/01/29 17:26:02;;;;;;;4.6;2.3;;;;;;;;;;;;;
2020/01/29 17:28:27;;;;;;;5.7;2.3;;;;;;;;;;;;;
2020/01/29 17:30:52;;;;;;;4.8;2.1;;;;;;;;;;;;;
2020/01/29 17:33:17;;;;;;;5.8;2.1;;;;;;;;;;;;;
2020/01/29 17:35:42;;;;;;;6.5;2.6;;;;;;;;;;;;;
2020/01/29 17:38:08;;;;;;;5.4;2.2;;;;;;;;;;;;;
2020/01/29 17:40:33;;;;;;;6;2.2;;;;;;;;;;;;;
2020/01/29 17:42:58;;;;;;;5.4;2.2;;;;;;;;;;;;;
2020/01/29 17:45:23;;;;;;;5.8;2;;;;;;;;;;;;;
2020/01/29 17:47:48;;;;;;;5.4;2;;;;;;;;;;;;;
2020/01/29 17:50:13;;;;;;;5.2;2.1;;;;;;;;;;;;;
2020/01/29 17:52:38;;;;;;;7.2;2.6;;;;;;;;;;;;;
2020/01/29 17:55:03;;;;;;;4.8;2.1;;;;;;;;;;;;;
2020/01/29 17:57:28;;;;;;;6.2;2.2;;;;;;;;;;;;;
2020/01/29 17:59:53;;;;;;;6;1.9;;;;;;;;;;;;;
2020/01/29 18:02:19;;;;;;;5.8;2.1;;;;;;;;;;;;;
2020/01/29 18:04:44;;;;;;;7.2;2.3;;;;;;;;;;;;;
2020/01/29 18:07:09;;;;;;;5.2;1.7;;;;;;;;;;;;;
2020/01/29 18:09:34;;;;;;;5.1;1.7;;;;;;;;;;;;;
2020/01/29 18:11:59;;;;;;;4.9;1.9;;;;;;;;;;;;;
2020/01/29 18:14:24;;;;;;;4.8;1.6;;;;;;;;;;;;;
2020/01/29 18:16:49;;;;;;;4.3;1.7;;;;;;;;;;;;;
2020/01/29 18:19:14;;;;;;;6.4;2;;;;;;;;;;;;;
2020/01/29 18:21:40;;;;;;;4.7;1.7;;;;;;;;;;;;;
2020/01/29 18:24:04;;;;;;;4.1;1.6;;;;;;;;;;;;;
2020/01/29 18:26:30;;;;;;;5.6;1.9;;;;;;;;;;;;;
2020/01/29 18:28:55;;;;;;;4;1.7;;;;;;;;;;;;;
2020/01/29 18:31:20;;;;;;;4.9;1.9;;;;;;;;;;;;;
2020/01/29 18:33:45;;;;;;;4.8;1.9;;;;;;;;;;;;;
2020/01/29 18:36:14;;;;;;;4.3;1.7;;;;;;;;;;;;;
2020/01/29 18:43:49;;;;;;;4;1.8;;;;;;;;;;;;;
2020/01/29 18:45:51;;;;;;;6;2.3;;;;;;;;;;;;;
2020/01/29 18:48:15;;;;;;;5.5;2;;;;;;;;;;;;;
2020/01/29 18:50:41;;;;;;;6.5;2.2;;;;;;;;;;;;;
2020/01/29 18:53:06;;;;;;;5.8;2;;;;;;;;;;;;;
2020/01/29 18:55:31;;;;;;;5.4;2.1;;;;;;;;;;;;;
2020/01/29 18:57:56;;;;;;;5;1.9;;;;;;;;;;;;;
2020/01/29 19:00:22;;;;;;;6;2.5;;;;;;;;;;;;;
2020/01/29 19:02:46;;;;;;;5.4;2.8;;;;;;;;;;;;;
2020/01/29 19:05:11;;;;;;;5.5;2.7;;;;;;;;;;;;;
2020/01/29 19:07:36;;;;;;;6.5;3;;;;;;;;;;;;;
2020/01/29 19:10:03;;;;;;;5.2;2.3;;;;;;;;;;;;;
2020/01/29 19:22:08;;;;;;;5.7;2.3;;;;;;;;;;;;;
2020/01/29 19:24:32;;;;;;;5.3;2.6;;;;;;;;;;;;;
2020/01/29 19:26:57;;;;;;;4.5;2.2;;;;;;;;;;;;;
2020/01/29 19:29:22;;;;;;;5;2;;;;;;;;;;;;;
2020/01/29 19:31:47;;;;;;;4.6;2.3;;;;;;;;;;;;;
2020/01/29 19:34:12;;;;;;;5.5;2.3;;;;;;;;;;;;;
2020/01/29 19:36:38;;;;;;;5.1;2.5;;;;;;;;;;;;;
2020/01/29 19:39:03;;;;;;;6.3;2.9;;;;;;;;;;;;;
2020/01/29 19:41:28;;;;;;;6.1;2.7;;;;;;;;;;;;;
2020/01/29 19:43:53;;;;;;;7.3;3.3;;;;;;;;;;;;;
2020/01/29 19:46:18;;;;;;;5.7;2.7;;;;;;;;;;;;;
2020/01/29 19:48:43;;;;;;;7.1;3.3;;;;;;;;;;;;;
2020/01/29 19:51:08;;;;;;;7.2;3.1;;;;;;;;;;;;;
2020/01/29 19:53:33;;;;;;;8;3.7;;;;;;;;;;;;;
2020/01/29 19:55:58;;;;;;;5.5;2.9;;;;;;;;;;;;;
2020/01/29 19:58:23;;;;;;;6.9;3.1;;;;;;;;;;;;;
2020/01/29 20:00:48;;;;;;;6.2;2.5;;;;;;;;;;;;;
2020/01/29 20:03:14;;;;;;;7.6;2.5;;;;;;;;;;;;;
2020/01/29 20:05:39;;;;;;;6.5;3;;;;;;;;;;;;;
2020/01/29 20:08:04;;;;;;;7.7;2.7;;;;;;;;;;;;;
2020/01/29 20:10:29;;;;;;;5.7;2.5;;;;;;;;;;;;;
2020/01/29 20:12:54;;;;;;;7.7;2.9;;;;;;;;;;;;;
2020/01/29 20:15:19;;;;;;;6.8;2.5;;;;;;;;;;;;;
2020/01/29 20:17:44;;;;;;;8.1;2.4;;;;;;;;;;;;;
2020/01/29 20:20:09;;;;;;;7.4;2.5;;;;;;;;;;;;;
2020/01/29 20:22:34;;;;;;;6.2;2.5;;;;;;;;;;;;;
2020/01/29 20:25:08;;;;;;;6.7;2.4;;;;;;;;;;;;;
2020/01/29 20:27:36;;;;;;;8.4;2.9;;;;;;;;;;;;;
2020/01/29 20:29:50;;;;;;;5.7;2.4;;;;;;;;;;;;;
2020/01/29 20:34:40;;;;;;;6.1;2.7;;;;;;;;;;;;;
2020/01/29 20:37:05;;;;;;;7.7;3.2;;;;;;;;;;;;;
2020/01/29 20:39:30;;;;;;;8.2;3.3;;;;;;;;;;;;;
2020/01/29 20:41:55;;;;;;;7.7;2.8;;;;;;;;;;;;;
2020/01/29 20:44:23;;;;;;;8.1;2.9;;;;;;;;;;;;;
2020/01/29 20:46:59;;;;;;;6.4;2.6;;;;;;;;;;;;;